Terminal Aerodrome Forecast
Issued by NWS Wilmington, NC

Home | Current Version | Previous Version | Text Only | Print | Product List | Glossary On
Versions: 1 2 3 4 5 6 7 8 9 10 11 12 13 14
000
FTUS42 KILM 080520
TAFLBT
TAF
KLBT 080520Z 0806/0906 20005KT P6SM BKN200
     FM081700 26009KT P6SM VCTS SCT050CB
     FM090200 21004KT P6SM FEW050 FEW200=

USA.gov is the U.S. government's official web portal to all federal, state and local government web resources and services.